sensor_id;sensor_type;location;lat;lon;timestamp;temperature;humidity
1025;DHT22;501;48.214;11.350;2023-03-04T00:01:46;2.10;60.20
1025;DHT22;501;48.214;11.350;2023-03-04T00:04:12;2.10;60.20
1025;DHT22;501;48.214;11.350;2023-03-04T00:06:37;2.00;60.00
1025;DHT22;501;48.214;11.350;2023-03-04T00:09:03;2.00;58.80
1025;DHT22;501;48.214;11.350;2023-03-04T00:11:30;2.10;58.60
1025;DHT22;501;48.214;11.350;2023-03-04T00:13:56;2.00;58.50
1025;DHT22;501;48.214;11.350;2023-03-04T00:16:23;2.00;58.50
1025;DHT22;501;48.214;11.350;2023-03-04T00:18:52;2.00;57.90
1025;DHT22;501;48.214;11.350;2023-03-04T00:21:18;2.00;57.10
1025;DHT22;501;48.214;11.350;2023-03-04T00:23:44;2.00;57.00
1025;DHT22;501;48.214;11.350;2023-03-04T00:26:10;2.00;56.80
1025;DHT22;501;48.214;11.350;2023-03-04T00:28:38;2.00;56.90
1025;DHT22;501;48.214;11.350;2023-03-04T00:31:05;2.00;57.40
1025;DHT22;501;48.214;11.350;2023-03-04T00:33:31;2.00;57.00
1025;DHT22;501;48.214;11.350;2023-03-04T00:35:56;1.90;57.50
1025;DHT22;501;48.214;11.350;2023-03-04T00:38:22;1.90;58.40
1025;DHT22;501;48.214;11.350;2023-03-04T00:40:48;1.90;57.70
1025;DHT22;501;48.214;11.350;2023-03-04T00:43:14;1.90;57.90
1025;DHT22;501;48.214;11.350;2023-03-04T00:45:40;1.90;58.10
1025;DHT22;501;48.214;11.350;2023-03-04T00:48:05;1.80;58.60
1025;DHT22;501;48.214;11.350;2023-03-04T00:50:31;1.80;59.40
1025;DHT22;501;48.214;11.350;2023-03-04T00:52:57;1.80;60.40
1025;DHT22;501;48.214;11.350;2023-03-04T00:55:22;1.80;61.40
1025;DHT22;501;48.214;11.350;2023-03-04T00:57:48;1.80;61.90
1025;DHT22;501;48.214;11.350;2023-03-04T01:00:14;1.80;62.50
1025;DHT22;501;48.214;11.350;2023-03-04T01:02:40;1.80;62.10
1025;DHT22;501;48.214;11.350;2023-03-04T01:05:07;1.70;61.60
1025;DHT22;501;48.214;11.350;2023-03-04T01:07:34;1.80;61.50
1025;DHT22;501;48.214;11.350;2023-03-04T01:10:00;1.80;61.30
1025;DHT22;501;48.214;11.350;2023-03-04T01:12:26;1.80;61.30
1025;DHT22;501;48.214;11.350;2023-03-04T01:14:52;1.80;60.50
1025;DHT22;501;48.214;11.350;2023-03-04T01:17:18;1.80;59.90
1025;DHT22;501;48.214;11.350;2023-03-04T01:19:44;1.80;60.20
1025;DHT22;501;48.214;11.350;2023-03-04T01:22:10;1.80;60.30
1025;DHT22;501;48.214;11.350;2023-03-04T01:24:38;1.80;59.90
1025;DHT22;501;48.214;11.350;2023-03-04T01:27:03;1.80;59.90
1025;DHT22;501;48.214;11.350;2023-03-04T01:29:29;1.80;60.30
1025;DHT22;501;48.214;11.350;2023-03-04T01:31:55;1.80;60.50
1025;DHT22;501;48.214;11.350;2023-03-04T01:34:21;1.80;60.60
1025;DHT22;501;48.214;11.350;2023-03-04T01:36:46;1.80;61.10
1025;DHT22;501;48.214;11.350;2023-03-04T01:39:12;1.80;60.90
1025;DHT22;501;48.214;11.350;2023-03-04T01:41:38;1.80;60.80
1025;DHT22;501;48.214;11.350;2023-03-04T01:44:04;1.80;60.90
1025;DHT22;501;48.214;11.350;2023-03-04T01:46:30;1.70;60.10
1025;DHT22;501;48.214;11.350;2023-03-04T01:48:56;1.70;60.70
1025;DHT22;501;48.214;11.350;2023-03-04T01:51:22;1.70;60.80
1025;DHT22;501;48.214;11.350;2023-03-04T01:53:50;1.70;60.60
1025;DHT22;501;48.214;11.350;2023-03-04T01:56:28;1.70;61.00
1025;DHT22;501;48.214;11.350;2023-03-04T01:59:20;1.70;61.30
1025;DHT22;501;48.214;11.350;2023-03-04T02:01:50;1.70;61.50
1025;DHT22;501;48.214;11.350;2023-03-04T02:04:18;1.60;61.70
1025;DHT22;501;48.214;11.350;2023-03-04T02:06:45;1.60;61.80
1025;DHT22;501;48.214;11.350;2023-03-04T02:09:12;1.60;61.70
1025;DHT22;501;48.214;11.350;2023-03-04T02:11:38;1.60;62.00
1025;DHT22;501;48.214;11.350;2023-03-04T02:14:05;1.60;61.90
1025;DHT22;501;48.214;11.350;2023-03-04T02:16:31;1.60;62.00
1025;DHT22;501;48.214;11.350;2023-03-04T02:18:57;1.50;62.20
1025;DHT22;501;48.214;11.350;2023-03-04T02:21:27;1.50;62.30
1025;DHT22;501;48.214;11.350;2023-03-04T02:26:21;1.50;62.60
1025;DHT22;501;48.214;11.350;2023-03-04T02:28:49;1.40;63.20
1025;DHT22;501;48.214;11.350;2023-03-04T02:33:54;1.40;63.70
1025;DHT22;501;48.214;11.350;2023-03-04T02:36:21;1.40;63.30
1025;DHT22;501;48.214;11.350;2023-03-04T02:38:49;1.40;63.00
1025;DHT22;501;48.214;11.350;2023-03-04T02:41:18;1.40;62.90
1025;DHT22;501;48.214;11.350;2023-03-04T02:43:46;1.40;62.90
1025;DHT22;501;48.214;11.350;2023-03-04T02:46:12;1.40;62.20
1025;DHT22;501;48.214;11.350;2023-03-04T02:48:38;1.40;61.70
1025;DHT22;501;48.214;11.350;2023-03-04T02:51:04;1.40;61.30
1025;DHT22;501;48.214;11.350;2023-03-04T02:53:30;1.50;60.40
1025;DHT22;501;48.214;11.350;2023-03-04T02:55:55;1.50;60.50
1025;DHT22;501;48.214;11.350;2023-03-04T02:58:21;1.50;59.60
1025;DHT22;501;48.214;11.350;2023-03-04T03:00:47;1.50;58.90
1025;DHT22;501;48.214;11.350;2023-03-04T03:03:13;1.40;58.80
1025;DHT22;501;48.214;11.350;2023-03-04T03:05:38;1.40;58.50
1025;DHT22;501;48.214;11.350;2023-03-04T03:08:04;1.40;58.00
1025;DHT22;501;48.214;11.350;2023-03-04T03:10:30;1.40;58.10
1025;DHT22;501;48.214;11.350;2023-03-04T03:12:56;1.40;58.20
1025;DHT22;501;48.214;11.350;2023-03-04T03:15:22;1.30;58.10
1025;DHT22;501;48.214;11.350;2023-03-04T03:17:48;1.30;57.80
1025;DHT22;501;48.214;11.350;2023-03-04T03:20:15;1.30;58.00
1025;DHT22;501;48.214;11.350;2023-03-04T03:22:41;1.30;58.70
1025;DHT22;501;48.214;11.350;2023-03-04T03:25:08;1.30;58.20
1025;DHT22;501;48.214;11.350;2023-03-04T03:27:34;1.30;58.00
1025;DHT22;501;48.214;11.350;2023-03-04T03:30:00;1.30;57.40
1025;DHT22;501;48.214;11.350;2023-03-04T03:32:26;1.30;56.70
1025;DHT22;501;48.214;11.350;2023-03-04T03:34:51;1.30;56.50
1025;DHT22;501;48.214;11.350;2023-03-04T03:37:17;1.30;56.10
1025;DHT22;501;48.214;11.350;2023-03-04T03:39:43;1.30;55.80
1025;DHT22;501;48.214;11.350;2023-03-04T03:42:09;1.30;55.40
1025;DHT22;501;48.214;11.350;2023-03-04T03:44:34;1.30;55.40
1025;DHT22;501;48.214;11.350;2023-03-04T03:47:00;1.20;55.30
1025;DHT22;501;48.214;11.350;2023-03-04T03:49:26;1.20;54.40
1025;DHT22;501;48.214;11.350;2023-03-04T03:51:52;1.20;54.40
1025;DHT22;501;48.214;11.350;2023-03-04T03:54:17;1.20;54.80
1025;DHT22;501;48.214;11.350;2023-03-04T03:56:43;1.10;54.90
1025;DHT22;501;48.214;11.350;2023-03-04T03:59:09;1.10;55.00
1025;DHT22;501;48.214;11.350;2023-03-04T04:01:34;1.10;54.90
1025;DHT22;501;48.214;11.350;2023-03-04T04:04:00;1.10;55.10
1025;DHT22;501;48.214;11.350;2023-03-04T04:06:26;1.10;55.30
1025;DHT22;501;48.214;11.350;2023-03-04T04:08:51;1.10;55.40
1025;DHT22;501;48.214;11.350;2023-03-04T04:11:17;1.10;55.50
1025;DHT22;501;48.214;11.350;2023-03-04T04:13:43;1.00;55.60
1025;DHT22;501;48.214;11.350;2023-03-04T04:16:09;1.00;55.40
1025;DHT22;501;48.214;11.350;2023-03-04T04:18:35;1.00;55.20
1025;DHT22;501;48.214;11.350;2023-03-04T04:21:01;1.00;55.30
1025;DHT22;501;48.214;11.350;2023-03-04T04:23:27;0.90;55.30
1025;DHT22;501;48.214;11.350;2023-03-04T04:25:54;0.90;55.60
1025;DHT22;501;48.214;11.350;2023-03-04T04:28:20;0.80;55.70
1025;DHT22;501;48.214;11.350;2023-03-04T04:30:46;0.80;55.70
1025;DHT22;501;48.214;11.350;2023-03-04T04:33:11;0.80;56.30
1025;DHT22;501;48.214;11.350;2023-03-04T04:35:37;0.80;55.70
1025;DHT22;501;48.214;11.350;2023-03-04T04:38:04;0.90;56.10
1025;DHT22;501;48.214;11.350;2023-03-04T04:40:29;0.90;55.90
1025;DHT22;501;48.214;11.350;2023-03-04T04:42:55;0.90;55.90
1025;DHT22;501;48.214;11.350;2023-03-04T04:45:22;0.90;55.60
1025;DHT22;501;48.214;11.350;2023-03-04T04:47:50;0.80;55.80
1025;DHT22;501;48.214;11.350;2023-03-04T04:50:16;0.80;56.40
1025;DHT22;501;48.214;11.350;2023-03-04T04:52:41;0.70;57.30
1025;DHT22;501;48.214;11.350;2023-03-04T04:55:07;0.70;57.90
1025;DHT22;501;48.214;11.350;2023-03-04T04:57:33;0.70;58.10
1025;DHT22;501;48.214;11.350;2023-03-04T04:59:59;0.60;58.30
1025;DHT22;501;48.214;11.350;2023-03-04T05:02:25;0.60;58.40
1025;DHT22;501;48.214;11.350;2023-03-04T05:04:50;0.60;58.80
1025;DHT22;501;48.214;11.350;2023-03-04T05:07:16;0.60;59.20
1025;DHT22;501;48.214;11.350;2023-03-04T05:09:42;0.60;57.80
1025;DHT22;501;48.214;11.350;2023-03-04T05:12:07;0.60;57.30
1025;DHT22;501;48.214;11.350;2023-03-04T05:14:33;0.60;56.90
1025;DHT22;501;48.214;11.350;2023-03-04T05:16:58;0.60;56.40
1025;DHT22;501;48.214;11.350;2023-03-04T05:19:24;0.70;56.00
1025;DHT22;501;48.214;11.350;2023-03-04T05:21:50;0.70;55.40
1025;DHT22;501;48.214;11.350;2023-03-04T05:24:15;0.70;55.00
1025;DHT22;501;48.214;11.350;2023-03-04T05:26:41;0.70;54.50
1025;DHT22;501;48.214;11.350;2023-03-04T05:29:07;0.60;53.80
1025;DHT22;501;48.214;11.350;2023-03-04T05:31:32;0.60;53.30
1025;DHT22;501;48.214;11.350;2023-03-04T05:33:58;0.60;53.00
1025;DHT22;501;48.214;11.350;2023-03-04T05:36:23;0.50;52.60
1025;DHT22;501;48.214;11.350;2023-03-04T05:38:49;0.50;52.40
1025;DHT22;501;48.214;11.350;2023-03-04T05:41:15;0.50;52.30
1025;DHT22;501;48.214;11.350;2023-03-04T05:43:43;0.50;52.50
1025;DHT22;501;48.214;11.350;2023-03-04T05:46:18;0.40;52.60
1025;DHT22;501;48.214;11.350;2023-03-04T05:48:50;0.40;52.80
1025;DHT22;501;48.214;11.350;2023-03-04T05:51:18;0.40;52.60
1025;DHT22;501;48.214;11.350;2023-03-04T05:53:44;0.40;52.70
1025;DHT22;501;48.214;11.350;2023-03-04T05:56:15;0.40;52.70
1025;DHT22;501;48.214;11.350;2023-03-04T05:58:42;0.40;52.40
1025;DHT22;501;48.214;11.350;2023-03-04T06:01:09;0.40;52.10
1025;DHT22;501;48.214;11.350;2023-03-04T06:03:35;0.40;51.90
1025;DHT22;501;48.214;11.350;2023-03-04T06:06:01;0.40;51.90
1025;DHT22;501;48.214;11.350;2023-03-04T06:08:27;0.40;51.60
1025;DHT22;501;48.214;11.350;2023-03-04T06:10:54;0.40;51.40
1025;DHT22;501;48.214;11.350;2023-03-04T06:13:20;0.40;51.10
1025;DHT22;501;48.214;11.350;2023-03-04T06:15:46;0.40;50.80
1025;DHT22;501;48.214;11.350;2023-03-04T06:18:12;0.40;50.40
1025;DHT22;501;48.214;11.350;2023-03-04T06:20:38;0.40;50.40
1025;DHT22;501;48.214;11.350;2023-03-04T06:23:04;0.40;51.00
1025;DHT22;501;48.214;11.350;2023-03-04T06:25:30;0.40;51.10
1025;DHT22;501;48.214;11.350;2023-03-04T06:27:56;0.40;50.90
1025;DHT22;501;48.214;11.350;2023-03-04T06:30:21;0.40;51.00
1025;DHT22;501;48.214;11.350;2023-03-04T06:32:47;0.40;51.40
1025;DHT22;501;48.214;11.350;2023-03-04T06:35:14;0.50;52.10
1025;DHT22;501;48.214;11.350;2023-03-04T06:37:41;0.50;52.50
1025;DHT22;501;48.214;11.350;2023-03-04T06:40:07;0.50;53.50
1025;DHT22;501;48.214;11.350;2023-03-04T06:42:35;0.50;54.30
1025;DHT22;501;48.214;11.350;2023-03-04T06:45:02;0.50;55.50
1025;DHT22;501;48.214;11.350;2023-03-04T06:47:27;0.50;56.50
1025;DHT22;501;48.214;11.350;2023-03-04T06:49:53;0.50;57.50
1025;DHT22;501;48.214;11.350;2023-03-04T06:52:19;0.50;58.70
1025;DHT22;501;48.214;11.350;2023-03-04T06:54:44;0.50;59.30
1025;DHT22;501;48.214;11.350;2023-03-04T06:57:10;0.50;60.30
1025;DHT22;501;48.214;11.350;2023-03-04T06:59:36;0.60;61.20
1025;DHT22;501;48.214;11.350;2023-03-04T07:02:02;0.70;61.60
1025;DHT22;501;48.214;11.350;2023-03-04T07:04:27;0.70;61.80
1025;DHT22;501;48.214;11.350;2023-03-04T07:06:53;0.80;62.10
1025;DHT22;501;48.214;11.350;2023-03-04T07:09:18;0.90;62.20
1025;DHT22;501;48.214;11.350;2023-03-04T07:11:44;0.90;62.60
1025;DHT22;501;48.214;11.350;2023-03-04T07:14:10;1.00;63.10
1025;DHT22;501;48.214;11.350;2023-03-04T07:16:36;1.00;63.20
1025;DHT22;501;48.214;11.350;2023-03-04T07:19:01;1.10;63.00
1025;DHT22;501;48.214;11.350;2023-03-04T07:21:27;1.10;63.00
1025;DHT22;501;48.214;11.350;2023-03-04T07:23:53;1.10;62.90
1025;DHT22;501;48.214;11.350;2023-03-04T07:26:19;1.20;63.30
1025;DHT22;501;48.214;11.350;2023-03-04T07:28:44;1.30;63.60
1025;DHT22;501;48.214;11.350;2023-03-04T07:31:11;1.30;64.20
1025;DHT22;501;48.214;11.350;2023-03-04T07:33:38;1.30;64.70
1025;DHT22;501;48.214;11.350;2023-03-04T07:36:03;1.30;65.00
1025;DHT22;501;48.214;11.350;2023-03-04T07:38:29;1.40;65.70
1025;DHT22;501;48.214;11.350;2023-03-04T07:40:56;1.40;65.40
1025;DHT22;501;48.214;11.350;2023-03-04T07:43:22;1.40;65.20
1025;DHT22;501;48.214;11.350;2023-03-04T07:45:47;1.40;65.80
1025;DHT22;501;48.214;11.350;2023-03-04T07:48:13;1.50;66.30
1025;DHT22;501;48.214;11.350;2023-03-04T07:50:39;1.50;66.20
1025;DHT22;501;48.214;11.350;2023-03-04T07:53:04;1.60;66.40
1025;DHT22;501;48.214;11.350;2023-03-04T07:55:30;1.60;66.40
1025;DHT22;501;48.214;11.350;2023-03-04T07:57:56;1.60;66.30
1025;DHT22;501;48.214;11.350;2023-03-04T08:00:22;1.70;66.20
1025;DHT22;501;48.214;11.350;2023-03-04T08:02:47;1.70;66.40
1025;DHT22;501;48.214;11.350;2023-03-04T08:05:13;1.80;66.70
1025;DHT22;501;48.214;11.350;2023-03-04T08:07:39;1.80;67.80
1025;DHT22;501;48.214;11.350;2023-03-04T08:10:05;1.90;67.70
1025;DHT22;501;48.214;11.350;2023-03-04T08:12:33;1.90;68.20
1025;DHT22;501;48.214;11.350;2023-03-04T08:14:58;1.90;66.80
1025;DHT22;501;48.214;11.350;2023-03-04T08:17:24;2.00;66.10
1025;DHT22;501;48.214;11.350;2023-03-04T08:19:49;2.00;66.50
1025;DHT22;501;48.214;11.350;2023-03-04T08:22:15;2.10;66.20
1025;DHT22;501;48.214;11.350;2023-03-04T08:24:41;2.10;64.50
1025;DHT22;501;48.214;11.350;2023-03-04T08:27:16;2.10;64.10
1025;DHT22;501;48.214;11.350;2023-03-04T08:29:41;2.20;64.20
1025;DHT22;501;48.214;11.350;2023-03-04T08:32:07;2.20;63.20
1025;DHT22;501;48.214;11.350;2023-03-04T08:34:32;2.30;61.70
1025;DHT22;501;48.214;11.350;2023-03-04T08:36:58;2.30;60.30
1025;DHT22;501;48.214;11.350;2023-03-04T08:39:24;2.40;60.40
1025;DHT22;501;48.214;11.350;2023-03-04T08:41:49;2.40;60.70
1025;DHT22;501;48.214;11.350;2023-03-04T08:44:15;2.50;60.60
1025;DHT22;501;48.214;11.350;2023-03-04T08:46:42;2.60;60.40
1025;DHT22;501;48.214;11.350;2023-03-04T08:49:10;2.60;59.60
1025;DHT22;501;48.214;11.350;2023-03-04T08:51:36;2.70;60.20
1025;DHT22;501;48.214;11.350;2023-03-04T08:54:02;2.70;58.60
1025;DHT22;501;48.214;11.350;2023-03-04T08:56:28;2.80;58.00
1025;DHT22;501;48.214;11.350;2023-03-04T08:58:54;2.80;58.40
1025;DHT22;501;48.214;11.350;2023-03-04T09:01:19;2.90;56.70
1025;DHT22;501;48.214;11.350;2023-03-04T09:03:45;3.00;54.90
1025;DHT22;501;48.214;11.350;2023-03-04T09:06:15;3.00;54.40
1025;DHT22;501;48.214;11.350;2023-03-04T09:08:41;3.00;54.10
1025;DHT22;501;48.214;11.350;2023-03-04T09:11:07;3.10;52.30
1025;DHT22;501;48.214;11.350;2023-03-04T09:13:33;3.20;50.20
1025;DHT22;501;48.214;11.350;2023-03-04T09:15:59;3.20;48.20
1025;DHT22;501;48.214;11.350;2023-03-04T09:18:26;3.30;45.10
1025;DHT22;501;48.214;11.350;2023-03-04T09:20:52;3.30;44.40
1025;DHT22;501;48.214;11.350;2023-03-04T09:23:18;3.30;46.10
1025;DHT22;501;48.214;11.350;2023-03-04T09:25:45;3.30;45.20
1025;DHT22;501;48.214;11.350;2023-03-04T09:28:12;3.40;45.60
1025;DHT22;501;48.214;11.350;2023-03-04T09:30:41;3.40;45.10
1025;DHT22;501;48.214;11.350;2023-03-04T09:33:07;3.50;45.80
1025;DHT22;501;48.214;11.350;2023-03-04T09:35:33;3.50;44.50
1025;DHT22;501;48.214;11.350;2023-03-04T09:37:59;3.60;45.90
1025;DHT22;501;48.214;11.350;2023-03-04T09:40:31;3.70;46.90
1025;DHT22;501;48.214;11.350;2023-03-04T09:43:03;3.70;47.20
1025;DHT22;501;48.214;11.350;2023-03-04T09:45:49;3.80;45.90
1025;DHT22;501;48.214;11.350;2023-03-04T09:48:20;3.90;46.70
1025;DHT22;501;48.214;11.350;2023-03-04T09:51:03;4.00;44.90
1025;DHT22;501;48.214;11.350;2023-03-04T09:53:42;4.10;43.50
1025;DHT22;501;48.214;11.350;2023-03-04T09:56:12;4.10;43.70
1025;DHT22;501;48.214;11.350;2023-03-04T10:04:02;4.30;43.10
1025;DHT22;501;48.214;11.350;2023-03-04T10:06:31;4.40;43.40
1025;DHT22;501;48.214;11.350;2023-03-04T10:08:58;4.40;42.10
1025;DHT22;501;48.214;11.350;2023-03-04T10:16:53;4.60;42.30
1025;DHT22;501;48.214;11.350;2023-03-04T10:19:37;4.70;40.00
1025;DHT22;501;48.214;11.350;2023-03-04T10:22:22;4.80;40.70
1025;DHT22;501;48.214;11.350;2023-03-04T10:24:55;4.80;40.60
1025;DHT22;501;48.214;11.350;2023-03-04T10:27:21;4.90;40.20
1025;DHT22;501;48.214;11.350;2023-03-04T10:29:48;4.90;40.30
1025;DHT22;501;48.214;11.350;2023-03-04T10:32:16;5.00;40.00
1025;DHT22;501;48.214;11.350;2023-03-04T10:34:42;5.00;40.60
1025;DHT22;501;48.214;11.350;2023-03-04T10:37:08;5.00;39.40
1025;DHT22;501;48.214;11.350;2023-03-04T10:39:45;5.00;40.60
1025;DHT22;501;48.214;11.350;2023-03-04T10:44:51;5.10;39.30
1025;DHT22;501;48.214;11.350;2023-03-04T10:47:17;5.20;40.00
1025;DHT22;501;48.214;11.350;2023-03-04T10:50:00;5.20;38.90
1025;DHT22;501;48.214;11.350;2023-03-04T10:52:40;5.30;38.00
1025;DHT22;501;48.214;11.350;2023-03-04T10:55:14;5.30;38.20
1025;DHT22;501;48.214;11.350;2023-03-04T10:57:42;5.30;38.70
1025;DHT22;501;48.214;11.350;2023-03-04T11:08:41;5.40;38.80
1025;DHT22;501;48.214;11.350;2023-03-04T11:13:55;5.50;37.60
1025;DHT22;501;48.214;11.350;2023-03-04T11:16:28;5.60;37.20
1025;DHT22;501;48.214;11.350;2023-03-04T11:19:05;5.60;37.40
1025;DHT22;501;48.214;11.350;2023-03-04T11:21:37;5.60;37.90
1025;DHT22;501;48.214;11.350;2023-03-04T11:24:10;5.70;36.70
1025;DHT22;501;48.214;11.350;2023-03-04T11:26:46;5.70;36.40
1025;DHT22;501;48.214;11.350;2023-03-04T11:29:37;5.70;36.10
1025;DHT22;501;48.214;11.350;2023-03-04T11:32:33;5.70;37.10
1025;DHT22;501;48.214;11.350;2023-03-04T11:35:30;5.80;36.10
1025;DHT22;501;48.214;11.350;2023-03-04T11:38:09;5.80;37.60
1025;DHT22;501;48.214;11.350;2023-03-04T11:40:45;5.90;35.20
1025;DHT22;501;48.214;11.350;2023-03-04T11:43:22;5.90;35.40
1025;DHT22;501;48.214;11.350;2023-03-04T11:51:36;6.10;35.30
1025;DHT22;501;48.214;11.350;2023-03-04T11:56:52;6.20;35.30
1025;DHT22;501;48.214;11.350;2023-03-04T11:59:36;6.20;35.50
1025;DHT22;501;48.214;11.350;2023-03-04T12:02:10;6.30;34.20
1025;DHT22;501;48.214;11.350;2023-03-04T12:07:10;6.30;35.20
1025;DHT22;501;48.214;11.350;2023-03-04T12:12:42;6.20;35.50
1025;DHT22;501;48.214;11.350;2023-03-04T12:29:04;6.20;35.60
1025;DHT22;501;48.214;11.350;2023-03-04T12:31:40;6.20;36.30
1025;DHT22;501;48.214;11.350;2023-03-04T12:34:27;6.10;35.70
1025;DHT22;501;48.214;11.350;2023-03-04T12:42:58;6.20;37.60
1025;DHT22;501;48.214;11.350;2023-03-04T12:45:45;6.20;36.70
1025;DHT22;501;48.214;11.350;2023-03-04T12:48:55;6.20;36.80
1025;DHT22;501;48.214;11.350;2023-03-04T12:56:55;6.50;35.80
1025;DHT22;501;48.214;11.350;2023-03-04T12:59:25;6.70;35.20
1025;DHT22;501;48.214;11.350;2023-03-04T13:02:41;6.80;34.00
1025;DHT22;501;48.214;11.350;2023-03-04T13:10:32;7.80;33.00
1025;DHT22;501;48.214;11.350;2023-03-04T13:12:59;8.20;31.40
1025;DHT22;501;48.214;11.350;2023-03-04T13:15:32;8.60;32.20
1025;DHT22;501;48.214;11.350;2023-03-04T13:18:01;9.10;30.90
1025;DHT22;501;48.214;11.350;2023-03-04T13:20:34;9.50;29.10
1025;DHT22;501;48.214;11.350;2023-03-04T13:23:28;9.80;29.40
1025;DHT22;501;48.214;11.350;2023-03-04T13:28:30;10.40;26.90
1025;DHT22;501;48.214;11.350;2023-03-04T13:43:36;11.00;25.60
1025;DHT22;501;48.214;11.350;2023-03-04T13:51:15;11.30;25.10
1025;DHT22;501;48.214;11.350;2023-03-04T13:53:44;11.40;24.70
1025;DHT22;501;48.214;11.350;2023-03-04T13:56:34;11.40;23.90
1025;DHT22;501;48.214;11.350;2023-03-04T13:59:10;11.30;25.10
1025;DHT22;501;48.214;11.350;2023-03-04T14:04:22;11.30;24.50
1025;DHT22;501;48.214;11.350;2023-03-04T14:06:50;11.30;23.70
1025;DHT22;501;48.214;11.350;2023-03-04T14:09:33;11.30;24.60
1025;DHT22;501;48.214;11.350;2023-03-04T14:12:10;11.10;24.10
1025;DHT22;501;48.214;11.350;2023-03-04T14:14:48;11.00;23.80
1025;DHT22;501;48.214;11.350;2023-03-04T14:17:29;10.80;24.30
1025;DHT22;501;48.214;11.350;2023-03-04T14:19:55;10.70;24.20
1025;DHT22;501;48.214;11.350;2023-03-04T14:22:30;10.60;24.10
1025;DHT22;501;48.214;11.350;2023-03-04T14:24:59;10.50;24.00
1025;DHT22;501;48.214;11.350;2023-03-04T14:27:26;10.40;24.40
1025;DHT22;501;48.214;11.350;2023-03-04T14:29:59;10.40;24.30
1025;DHT22;501;48.214;11.350;2023-03-04T14:32:26;10.60;24.50
1025;DHT22;501;48.214;11.350;2023-03-04T14:35:19;10.70;24.20
1025;DHT22;501;48.214;11.350;2023-03-04T14:40:37;10.30;23.90
1025;DHT22;501;48.214;11.350;2023-03-04T14:43:16;10.00;24.10
1025;DHT22;501;48.214;11.350;2023-03-04T14:45:43;9.80;25.20
1025;DHT22;501;48.214;11.350;2023-03-04T14:48:36;9.50;25.50
1025;DHT22;501;48.214;11.350;2023-03-04T14:51:02;9.30;25.60
1025;DHT22;501;48.214;11.350;2023-03-04T14:53:29;9.20;26.10
1025;DHT22;501;48.214;11.350;2023-03-04T14:56:05;9.10;26.30
1025;DHT22;501;48.214;11.350;2023-03-04T14:58:33;9.30;25.70
1025;DHT22;501;48.214;11.350;2023-03-04T15:01:15;9.40;25.60
1025;DHT22;501;48.214;11.350;2023-03-04T15:06:20;9.60;25.50
1025;DHT22;501;48.214;11.350;2023-03-04T15:09:27;9.60;25.50
1025;DHT22;501;48.214;11.350;2023-03-04T15:12:01;9.40;25.30
1025;DHT22;501;48.214;11.350;2023-03-04T15:14:48;9.10;25.30
1025;DHT22;501;48.214;11.350;2023-03-04T15:17:39;8.90;26.00
1025;DHT22;501;48.214;11.350;2023-03-04T15:22:34;8.80;26.00
1025;DHT22;501;48.214;11.350;2023-03-04T15:25:00;8.70;25.80
1025;DHT22;501;48.214;11.350;2023-03-04T15:27:27;8.60;26.30
1025;DHT22;501;48.214;11.350;2023-03-04T15:29:54;8.60;26.00
1025;DHT22;501;48.214;11.350;2023-03-04T15:32:24;8.50;26.30
1025;DHT22;501;48.214;11.350;2023-03-04T15:34:49;8.10;26.60
1025;DHT22;501;48.214;11.350;2023-03-04T15:37:34;7.80;27.20
1025;DHT22;501;48.214;11.350;2023-03-04T15:39:59;7.20;27.80
1025;DHT22;501;48.214;11.350;2023-03-04T15:42:26;6.60;28.70
1025;DHT22;501;48.214;11.350;2023-03-04T15:44:53;6.00;29.40
1025;DHT22;501;48.214;11.350;2023-03-04T15:47:18;5.50;30.00
1025;DHT22;501;48.214;11.350;2023-03-04T15:49:44;5.20;30.80
1025;DHT22;501;48.214;11.350;2023-03-04T15:52:20;5.00;31.80
1025;DHT22;501;48.214;11.350;2023-03-04T15:54:49;4.80;32.10
1025;DHT22;501;48.214;11.350;2023-03-04T15:57:25;4.60;32.60
1025;DHT22;501;48.214;11.350;2023-03-04T15:59:52;4.50;33.30
1025;DHT22;501;48.214;11.350;2023-03-04T16:02:20;4.40;33.40
1025;DHT22;501;48.214;11.350;2023-03-04T16:04:46;4.30;33.40
1025;DHT22;501;48.214;11.350;2023-03-04T16:07:21;4.20;33.50
1025;DHT22;501;48.214;11.350;2023-03-04T16:09:53;4.10;33.80
1025;DHT22;501;48.214;11.350;2023-03-04T16:12:19;4.00;33.90
1025;DHT22;501;48.214;11.350;2023-03-04T16:14:45;3.90;34.30
1025;DHT22;501;48.214;11.350;2023-03-04T16:17:12;3.90;34.70
1025;DHT22;501;48.214;11.350;2023-03-04T16:19:40;3.80;34.70
1025;DHT22;501;48.214;11.350;2023-03-04T16:22:06;3.70;34.70
1025;DHT22;501;48.214;11.350;2023-03-04T16:24:33;3.70;34.80
1025;DHT22;501;48.214;11.350;2023-03-04T16:26:59;3.60;34.90
1025;DHT22;501;48.214;11.350;2023-03-04T16:29:24;3.50;35.50
1025;DHT22;501;48.214;11.350;2023-03-04T16:31:53;3.50;35.20
1025;DHT22;501;48.214;11.350;2023-03-04T16:34:18;3.40;36.20
1025;DHT22;501;48.214;11.350;2023-03-04T16:36:44;3.40;35.60
1025;DHT22;501;48.214;11.350;2023-03-04T16:39:19;3.30;35.50
1025;DHT22;501;48.214;11.350;2023-03-04T16:41:44;3.20;35.90
1025;DHT22;501;48.214;11.350;2023-03-04T16:44:10;3.20;36.50
1025;DHT22;501;48.214;11.350;2023-03-04T16:46:38;3.10;36.40
1025;DHT22;501;48.214;11.350;2023-03-04T16:49:04;3.10;36.70
1025;DHT22;501;48.214;11.350;2023-03-04T16:51:33;3.00;36.80
1025;DHT22;501;48.214;11.350;2023-03-04T16:54:00;2.90;37.10
1025;DHT22;501;48.214;11.350;2023-03-04T16:56:27;2.80;37.10
1025;DHT22;501;48.214;11.350;2023-03-04T16:58:53;2.80;37.30
1025;DHT22;501;48.214;11.350;2023-03-04T17:01:22;2.70;37.50
1025;DHT22;501;48.214;11.350;2023-03-04T17:03:47;2.60;37.60
1025;DHT22;501;48.214;11.350;2023-03-04T17:06:14;2.50;37.90
1025;DHT22;501;48.214;11.350;2023-03-04T17:08:41;2.40;38.20
1025;DHT22;501;48.214;11.350;2023-03-04T17:11:11;2.30;38.40
1025;DHT22;501;48.214;11.350;2023-03-04T17:13:37;2.30;38.50
1025;DHT22;501;48.214;11.350;2023-03-04T17:16:02;2.20;39.20
1025;DHT22;501;48.214;11.350;2023-03-04T17:18:29;2.20;39.70
1025;DHT22;501;48.214;11.350;2023-03-04T17:21:04;2.20;39.60
1025;DHT22;501;48.214;11.350;2023-03-04T17:23:30;2.10;39.40
1025;DHT22;501;48.214;11.350;2023-03-04T17:25:57;2.10;39.80
1025;DHT22;501;48.214;11.350;2023-03-04T17:28:23;2.00;39.30
1025;DHT22;501;48.214;11.350;2023-03-04T17:30:49;2.00;39.70
1025;DHT22;501;48.214;11.350;2023-03-04T17:33:15;2.00;39.20
1025;DHT22;501;48.214;11.350;2023-03-04T17:35:40;2.00;40.10
1025;DHT22;501;48.214;11.350;2023-03-04T17:38:06;1.90;39.70
1025;DHT22;501;48.214;11.350;2023-03-04T17:40:32;1.90;39.90
1025;DHT22;501;48.214;11.350;2023-03-04T17:42:58;1.80;39.80
1025;DHT22;501;48.214;11.350;2023-03-04T17:45:23;1.80;39.70
1025;DHT22;501;48.214;11.350;2023-03-04T17:47:49;1.70;39.70
1025;DHT22;501;48.214;11.350;2023-03-04T17:50:15;1.60;40.10
1025;DHT22;501;48.214;11.350;2023-03-04T17:52:41;1.60;40.40
1025;DHT22;501;48.214;11.350;2023-03-04T17:55:06;1.50;40.90
1025;DHT22;501;48.214;11.350;2023-03-04T17:57:36;1.50;40.70
1025;DHT22;501;48.214;11.350;2023-03-04T18:00:03;1.50;40.60
1025;DHT22;501;48.214;11.350;2023-03-04T18:02:29;1.50;40.80
1025;DHT22;501;48.214;11.350;2023-03-04T18:04:54;1.50;40.70
1025;DHT22;501;48.214;11.350;2023-03-04T18:07:20;1.40;40.80
1025;DHT22;501;48.214;11.350;2023-03-04T18:09:45;1.40;40.20
1025;DHT22;501;48.214;11.350;2023-03-04T18:12:12;1.40;40.40